This is the latest recevied weather packets stored in our database for station/object HP1PCR-13. If no packets are shown the sender has not sent any weather packets the latest 10 day(s).
| Time | Temp. | Humidity | Pressure | Rain* | Wind** | Luminosity | Snow |
|---|---|---|---|---|---|---|---|
| 1777708487 | 30.56° C | 44% | 1001.3 hPa | - | - | - | - |
| 1777707883 | 30° C | 41% | 1001.6 hPa | - | - | - | - |
| 1777707279 | 29.44° C | 35% | 1001.8 hPa | - | - | - | - |
| 1777706675 | 30° C | 40% | 1002 hPa | - | - | - | - |
| 1777706071 | 29.44° C | 36% | 1001.8 hPa | - | - | - | - |
| 1777705466 | 30° C | 38% | 1002 hPa | - | - | - | - |
| 1777704862 | 29.44° C | 33% | 1002.3 hPa | - | - | - | - |
| 1777704258 | 30° C | 42% | 1002.1 hPa | - | - | - | - |
| 1777703050 | 30° C | 36% | 1002.2 hPa | - | - | - | - |
| 1777702445 | 30° C | 42% | 1002.5 hPa | - | - | - | - |
| 1777701842 | 30° C | 34% | 1002.5 hPa | - | - | - | - |
| 1777701238 | 30° C | 37% | 1002.6 hPa | - | - | - | - |
| 1777700634 | 30.56° C | 41% | 1002.6 hPa | - | - | - | - |
| 1777698217 | 30.56° C | 30% | 1002.4 hPa | - | - | - | - |
| 1777697008 | 30.56° C | 36% | 1001.9 hPa | - | - | - | - |
| 1777696404 | 30.56° C | 32% | 1002.5 hPa | - | - | - | - |
| 1777695800 | 31.11° C | 33% | 1002.3 hPa | - | - | - | - |
| 1777695196 | 31.11° C | 33% | 1002.6 hPa | - | - | - | - |
| 1777694592 | 31.11° C | 32% | 1002.9 hPa | - | - | - | - |
| 1777693989 | 31.11° C | 30% | 1002.9 hPa | - | - | - | - |
| 1777693384 | 31.11° C | 30% | 1002.9 hPa | - | - | - | - |
| 1777692780 | 31.67° C | 32% | 1003 hPa | - | - | - | - |
| 1777692176 | 31.67° C | 27% | 1003.2 hPa | - | - | - | - |
| 1777691572 | 32.22° C | 25% | 1003.4 hPa | - | - | - | - |
| 1777690967 | 32.78° C | 28% | 1003.5 hPa | - | - | - | - |
* Rain since midnight (hover to see other rain measurements)
** Current wind speed in m/s (hover to see current wind gust speed)